Accueil
METAR-TAF:

METAR-TAF

Aéroports :

Udine, Italie

latitude: 45-59N, longitude: 013-02E, altitude: 51 m

Observation

Le bulletin a été fait il y a 45 minutes, à 15:55 UTC
Vent 4 kt de est
Température 18°C
Humidité 83%
Pression 1015 hPa
Visibilité 10 km ou plus
Quelques nuages à une hauteur de 2500 ft
Nuages épars à une hauteur de 5000 ft
Nuages fragmentés à une hauteur de 6000 ft

METAR: LIPI 241555Z 08004KT 9999 FEW025 SCT050 BKN060 18/15 Q1015 RMK OVC VIS MIN 9999 WIND THR06 09004KT WIND THR24 09003KT BLU

Heure: 18:40 (16:40 UTC)

Prévision

Le bulletin a été fait il y a 32 heures et 40 minutes, à 08:00 UTC
Prévision valable du 23 à 09 UTC au 23 à 18 UTC
Vent 5 kt de direction variable
Visibilité 10 km ou plus
Nuages épars à une hauteur de 4000 ft

TAF: LIPI 230800Z 2309/2318 VRB05KT 9999 SCT040

Observations et prévisions météorologiques de plus de 4000 aéroports (messages METAR et TAF).

Les stations disponibles sont représentées par des disques jaunes et rouges sur la carte.

Passer la souris dessus pour voir le nom de la station.

Cliquer dessus pour voir les observations et prévisions météorologiques.

Pour changer de carte: cliquez sur les boutons verts avec une croix noire pour zoomer, sur le bouton vert avec un tiret pour effectuer un zoom arrière, ou sur les flèches vertes pour les cartes adjacentes.


METAR-TAF: